sensor_id;sensor_type;location;lat;lon;timestamp;temperature;humidity
52899;DHT22;38763;53.096;6.062;2023-04-15T00:01:24;7.70;99.90
52899;DHT22;38763;53.096;6.062;2023-04-15T00:03:51;7.70;99.90
52899;DHT22;38763;53.096;6.062;2023-04-15T00:06:17;7.70;99.90
52899;DHT22;38763;53.096;6.062;2023-04-15T00:08:44;7.60;99.90
52899;DHT22;38763;53.096;6.062;2023-04-15T00:11:10;7.60;99.90
52899;DHT22;38763;53.096;6.062;2023-04-15T00:13:37;7.60;99.90
52899;DHT22;38763;53.096;6.062;2023-04-15T00:16:03;7.50;99.90
52899;DHT22;38763;53.096;6.062;2023-04-15T00:18:29;7.50;99.90
52899;DHT22;38763;53.096;6.062;2023-04-15T00:20:54;7.40;99.90
52899;DHT22;38763;53.096;6.062;2023-04-15T00:23:20;7.40;99.90
52899;DHT22;38763;53.096;6.062;2023-04-15T00:25:46;7.30;99.90
52899;DHT22;38763;53.096;6.062;2023-04-15T00:28:12;7.30;99.90
52899;DHT22;38763;53.096;6.062;2023-04-15T00:30:38;7.30;99.90
52899;DHT22;38763;53.096;6.062;2023-04-15T00:33:03;7.20;99.90
52899;DHT22;38763;53.096;6.062;2023-04-15T00:35:29;7.20;99.90
52899;DHT22;38763;53.096;6.062;2023-04-15T00:37:57;7.10;99.90
52899;DHT22;38763;53.096;6.062;2023-04-15T00:40:23;7.10;99.90
52899;DHT22;38763;53.096;6.062;2023-04-15T00:42:49;7.00;99.90
52899;DHT22;38763;53.096;6.062;2023-04-15T00:45:15;7.00;99.90
52899;DHT22;38763;53.096;6.062;2023-04-15T00:47:42;6.90;99.90
52899;DHT22;38763;53.096;6.062;2023-04-15T00:50:09;7.00;99.90
52899;DHT22;38763;53.096;6.062;2023-04-15T00:52:35;6.90;99.90
52899;DHT22;38763;53.096;6.062;2023-04-15T00:55:01;6.90;99.90
52899;DHT22;38763;53.096;6.062;2023-04-15T00:57:29;6.90;99.90
52899;DHT22;38763;53.096;6.062;2023-04-15T00:59:55;6.80;99.90
52899;DHT22;38763;53.096;6.062;2023-04-15T01:02:21;6.70;99.90
52899;DHT22;38763;53.096;6.062;2023-04-15T01:04:48;6.70;99.90
52899;DHT22;38763;53.096;6.062;2023-04-15T01:07:13;6.60;99.90
52899;DHT22;38763;53.096;6.062;2023-04-15T01:09:39;6.60;99.90
52899;DHT22;38763;53.096;6.062;2023-04-15T01:12:06;6.60;99.90
52899;DHT22;38763;53.096;6.062;2023-04-15T01:14:33;6.50;99.90
52899;DHT22;38763;53.096;6.062;2023-04-15T01:16:59;6.60;99.90
52899;DHT22;38763;53.096;6.062;2023-04-15T01:19:25;6.50;99.90
52899;DHT22;38763;53.096;6.062;2023-04-15T01:21:52;6.50;99.90
52899;DHT22;38763;53.096;6.062;2023-04-15T01:24:17;6.40;99.90
52899;DHT22;38763;53.096;6.062;2023-04-15T01:26:44;6.40;99.90
52899;DHT22;38763;53.096;6.062;2023-04-15T01:29:11;6.40;99.90
52899;DHT22;38763;53.096;6.062;2023-04-15T01:31:37;6.40;99.90
52899;DHT22;38763;53.096;6.062;2023-04-15T01:34:03;6.30;99.90
52899;DHT22;38763;53.096;6.062;2023-04-15T01:36:29;6.30;99.90
52899;DHT22;38763;53.096;6.062;2023-04-15T01:38:55;6.40;99.90
52899;DHT22;38763;53.096;6.062;2023-04-15T01:41:25;6.30;99.90
52899;DHT22;38763;53.096;6.062;2023-04-15T01:43:51;6.30;99.90
52899;DHT22;38763;53.096;6.062;2023-04-15T01:46:17;6.30;99.90
52899;DHT22;38763;53.096;6.062;2023-04-15T01:48:43;6.20;99.90
52899;DHT22;38763;53.096;6.062;2023-04-15T01:51:09;6.20;99.90
52899;DHT22;38763;53.096;6.062;2023-04-15T01:53:34;6.20;99.90
52899;DHT22;38763;53.096;6.062;2023-04-15T01:56:00;6.10;99.90
52899;DHT22;38763;53.096;6.062;2023-04-15T01:58:25;6.10;99.90
52899;DHT22;38763;53.096;6.062;2023-04-15T02:00:51;6.10;99.90
52899;DHT22;38763;53.096;6.062;2023-04-15T02:03:18;6.00;99.90
52899;DHT22;38763;53.096;6.062;2023-04-15T02:05:43;6.00;99.90
52899;DHT22;38763;53.096;6.062;2023-04-15T02:08:09;6.00;99.90
52899;DHT22;38763;53.096;6.062;2023-04-15T02:10:35;6.00;99.90
52899;DHT22;38763;53.096;6.062;2023-04-15T02:13:01;6.00;99.90
52899;DHT22;38763;53.096;6.062;2023-04-15T02:15:27;5.90;99.90
52899;DHT22;38763;53.096;6.062;2023-04-15T02:17:52;5.90;99.90
52899;DHT22;38763;53.096;6.062;2023-04-15T02:20:20;6.00;99.90
52899;DHT22;38763;53.096;6.062;2023-04-15T02:22:46;5.90;99.90
52899;DHT22;38763;53.096;6.062;2023-04-15T02:25:13;5.90;99.90
52899;DHT22;38763;53.096;6.062;2023-04-15T02:27:38;5.90;99.90
52899;DHT22;38763;53.096;6.062;2023-04-15T02:30:05;5.90;99.90
52899;DHT22;38763;53.096;6.062;2023-04-15T02:32:32;5.90;99.90
52899;DHT22;38763;53.096;6.062;2023-04-15T02:35:05;5.90;99.90
52899;DHT22;38763;53.096;6.062;2023-04-15T02:37:31;5.80;99.90
52899;DHT22;38763;53.096;6.062;2023-04-15T02:40:00;5.80;99.90
52899;DHT22;38763;53.096;6.062;2023-04-15T02:42:25;5.80;99.90
52899;DHT22;38763;53.096;6.062;2023-04-15T02:44:53;5.80;99.90
52899;DHT22;38763;53.096;6.062;2023-04-15T02:47:19;5.80;99.90
52899;DHT22;38763;53.096;6.062;2023-04-15T02:49:45;5.70;99.90
52899;DHT22;38763;53.096;6.062;2023-04-15T02:52:10;5.70;99.90
52899;DHT22;38763;53.096;6.062;2023-04-15T02:54:36;5.70;99.90
52899;DHT22;38763;53.096;6.062;2023-04-15T02:57:02;5.70;99.90
52899;DHT22;38763;53.096;6.062;2023-04-15T02:59:30;5.70;99.90
52899;DHT22;38763;53.096;6.062;2023-04-15T03:01:56;5.60;99.90
52899;DHT22;38763;53.096;6.062;2023-04-15T03:04:25;5.60;99.90
52899;DHT22;38763;53.096;6.062;2023-04-15T03:06:51;5.70;99.90
52899;DHT22;38763;53.096;6.062;2023-04-15T03:09:16;5.60;99.90
52899;DHT22;38763;53.096;6.062;2023-04-15T03:11:42;5.60;99.90
52899;DHT22;38763;53.096;6.062;2023-04-15T03:14:08;5.60;99.90
52899;DHT22;38763;53.096;6.062;2023-04-15T03:16:33;5.60;99.90
52899;DHT22;38763;53.096;6.062;2023-04-15T03:18:59;5.50;99.90
52899;DHT22;38763;53.096;6.062;2023-04-15T03:21:25;5.50;99.90
52899;DHT22;38763;53.096;6.062;2023-04-15T03:23:51;5.50;99.90
52899;DHT22;38763;53.096;6.062;2023-04-15T03:26:30;5.50;99.90
52899;DHT22;38763;53.096;6.062;2023-04-15T03:28:56;5.50;99.90
52899;DHT22;38763;53.096;6.062;2023-04-15T03:31:22;5.50;99.90
52899;DHT22;38763;53.096;6.062;2023-04-15T03:33:48;5.50;99.90
52899;DHT22;38763;53.096;6.062;2023-04-15T03:36:14;5.40;99.90
52899;DHT22;38763;53.096;6.062;2023-04-15T03:38:40;5.40;99.90
52899;DHT22;38763;53.096;6.062;2023-04-15T03:41:06;5.40;99.90
52899;DHT22;38763;53.096;6.062;2023-04-15T03:43:32;5.40;99.90
52899;DHT22;38763;53.096;6.062;2023-04-15T03:45:57;5.30;99.90
52899;DHT22;38763;53.096;6.062;2023-04-15T03:48:23;5.30;99.90
52899;DHT22;38763;53.096;6.062;2023-04-15T03:50:48;5.30;99.90
52899;DHT22;38763;53.096;6.062;2023-04-15T03:53:14;5.30;99.90
52899;DHT22;38763;53.096;6.062;2023-04-15T03:55:40;5.30;99.90
52899;DHT22;38763;53.096;6.062;2023-04-15T03:58:06;5.20;99.90
52899;DHT22;38763;53.096;6.062;2023-04-15T04:00:31;5.20;99.90
52899;DHT22;38763;53.096;6.062;2023-04-15T04:02:57;5.30;99.90
52899;DHT22;38763;53.096;6.062;2023-04-15T04:05:23;5.20;99.90
52899;DHT22;38763;53.096;6.062;2023-04-15T04:07:48;5.20;99.90
52899;DHT22;38763;53.096;6.062;2023-04-15T04:10:15;5.10;99.90
52899;DHT22;38763;53.096;6.062;2023-04-15T04:12:40;5.00;99.90
52899;DHT22;38763;53.096;6.062;2023-04-15T04:15:06;5.00;99.90
52899;DHT22;38763;53.096;6.062;2023-04-15T04:17:32;5.00;99.90
52899;DHT22;38763;53.096;6.062;2023-04-15T04:19:58;5.00;99.90
52899;DHT22;38763;53.096;6.062;2023-04-15T04:22:24;5.00;99.90
52899;DHT22;38763;53.096;6.062;2023-04-15T04:24:50;5.00;99.90
52899;DHT22;38763;53.096;6.062;2023-04-15T04:27:16;5.00;99.90
52899;DHT22;38763;53.096;6.062;2023-04-15T04:29:41;4.90;99.90
52899;DHT22;38763;53.096;6.062;2023-04-15T04:32:07;5.00;99.90
52899;DHT22;38763;53.096;6.062;2023-04-15T04:34:33;5.00;99.90
52899;DHT22;38763;53.096;6.062;2023-04-15T04:36:58;5.00;99.90
52899;DHT22;38763;53.096;6.062;2023-04-15T04:39:24;5.00;99.90
52899;DHT22;38763;53.096;6.062;2023-04-15T04:41:50;4.90;99.90
52899;DHT22;38763;53.096;6.062;2023-04-15T04:44:17;4.90;99.90
52899;DHT22;38763;53.096;6.062;2023-04-15T04:46:42;4.90;99.90
52899;DHT22;38763;53.096;6.062;2023-04-15T04:49:08;4.90;99.90
52899;DHT22;38763;53.096;6.062;2023-04-15T04:51:34;4.90;99.90
52899;DHT22;38763;53.096;6.062;2023-04-15T04:53:59;4.90;99.90
52899;DHT22;38763;53.096;6.062;2023-04-15T04:56:25;4.90;99.90
52899;DHT22;38763;53.096;6.062;2023-04-15T04:58:51;4.90;99.90
52899;DHT22;38763;53.096;6.062;2023-04-15T05:01:17;4.80;99.90
52899;DHT22;38763;53.096;6.062;2023-04-15T05:03:43;4.90;99.90
52899;DHT22;38763;53.096;6.062;2023-04-15T05:06:09;5.00;99.90
52899;DHT22;38763;53.096;6.062;2023-04-15T05:08:35;4.90;99.90
52899;DHT22;38763;53.096;6.062;2023-04-15T05:11:01;4.90;99.90
52899;DHT22;38763;53.096;6.062;2023-04-15T05:13:27;4.90;99.90
52899;DHT22;38763;53.096;6.062;2023-04-15T05:15:54;5.00;99.90
52899;DHT22;38763;53.096;6.062;2023-04-15T05:18:21;5.00;99.90
52899;DHT22;38763;53.096;6.062;2023-04-15T05:20:46;5.00;99.90
52899;DHT22;38763;53.096;6.062;2023-04-15T05:23:14;5.00;99.90
52899;DHT22;38763;53.096;6.062;2023-04-15T05:25:40;5.00;99.90
52899;DHT22;38763;53.096;6.062;2023-04-15T05:28:06;5.10;99.90
52899;DHT22;38763;53.096;6.062;2023-04-15T05:30:31;5.10;99.90
52899;DHT22;38763;53.096;6.062;2023-04-15T05:32:57;5.10;99.90
52899;DHT22;38763;53.096;6.062;2023-04-15T05:35:22;5.20;99.90
52899;DHT22;38763;53.096;6.062;2023-04-15T05:37:48;5.30;99.90
52899;DHT22;38763;53.096;6.062;2023-04-15T05:40:14;5.40;99.90
52899;DHT22;38763;53.096;6.062;2023-04-15T05:42:39;5.50;99.90
52899;DHT22;38763;53.096;6.062;2023-04-15T05:45:06;5.50;99.90
52899;DHT22;38763;53.096;6.062;2023-04-15T05:47:34;5.60;99.90
52899;DHT22;38763;53.096;6.062;2023-04-15T05:50:00;5.60;99.90
52899;DHT22;38763;53.096;6.062;2023-04-15T05:52:26;5.70;99.90
52899;DHT22;38763;53.096;6.062;2023-04-15T05:54:52;5.80;99.90
52899;DHT22;38763;53.096;6.062;2023-04-15T05:57:17;5.80;99.90
52899;DHT22;38763;53.096;6.062;2023-04-15T05:59:43;5.90;99.90
52899;DHT22;38763;53.096;6.062;2023-04-15T06:02:09;6.00;99.90
52899;DHT22;38763;53.096;6.062;2023-04-15T06:04:35;6.10;99.90
52899;DHT22;38763;53.096;6.062;2023-04-15T06:07:01;6.20;99.90
52899;DHT22;38763;53.096;6.062;2023-04-15T06:09:27;6.20;99.90
52899;DHT22;38763;53.096;6.062;2023-04-15T06:11:53;6.30;99.90
52899;DHT22;38763;53.096;6.062;2023-04-15T06:14:19;6.40;99.90
52899;DHT22;38763;53.096;6.062;2023-04-15T06:16:45;6.40;99.90
52899;DHT22;38763;53.096;6.062;2023-04-15T06:19:10;6.50;99.90
52899;DHT22;38763;53.096;6.062;2023-04-15T06:21:37;6.50;99.90
52899;DHT22;38763;53.096;6.062;2023-04-15T06:24:02;6.60;99.90
52899;DHT22;38763;53.096;6.062;2023-04-15T06:26:28;6.60;99.90
52899;DHT22;38763;53.096;6.062;2023-04-15T06:28:54;6.60;99.90
52899;DHT22;38763;53.096;6.062;2023-04-15T06:31:20;6.70;99.90
52899;DHT22;38763;53.096;6.062;2023-04-15T06:33:45;6.70;99.90
52899;DHT22;38763;53.096;6.062;2023-04-15T06:36:11;6.80;99.90
52899;DHT22;38763;53.096;6.062;2023-04-15T06:38:37;6.80;99.90
52899;DHT22;38763;53.096;6.062;2023-04-15T06:41:03;6.80;99.90
52899;DHT22;38763;53.096;6.062;2023-04-15T06:43:29;7.00;99.90
52899;DHT22;38763;53.096;6.062;2023-04-15T06:45:55;7.10;99.90
52899;DHT22;38763;53.096;6.062;2023-04-15T06:48:21;7.10;99.90
52899;DHT22;38763;53.096;6.062;2023-04-15T06:50:48;7.20;99.90
52899;DHT22;38763;53.096;6.062;2023-04-15T06:53:14;7.30;99.90
52899;DHT22;38763;53.096;6.062;2023-04-15T06:55:40;7.40;99.90
52899;DHT22;38763;53.096;6.062;2023-04-15T06:58:06;7.50;99.90
52899;DHT22;38763;53.096;6.062;2023-04-15T07:00:32;7.60;99.90
52899;DHT22;38763;53.096;6.062;2023-04-15T07:02:59;7.60;99.90
52899;DHT22;38763;53.096;6.062;2023-04-15T07:05:28;7.80;99.90
52899;DHT22;38763;53.096;6.062;2023-04-15T07:07:54;7.80;99.90
52899;DHT22;38763;53.096;6.062;2023-04-15T07:10:20;8.00;99.90
52899;DHT22;38763;53.096;6.062;2023-04-15T07:12:47;8.10;99.90
52899;DHT22;38763;53.096;6.062;2023-04-15T07:15:13;8.20;99.90
52899;DHT22;38763;53.096;6.062;2023-04-15T07:17:40;8.40;99.90
52899;DHT22;38763;53.096;6.062;2023-04-15T07:20:06;8.40;99.90
52899;DHT22;38763;53.096;6.062;2023-04-15T07:22:32;8.50;99.90
52899;DHT22;38763;53.096;6.062;2023-04-15T07:24:58;8.60;99.90
52899;DHT22;38763;53.096;6.062;2023-04-15T07:27:24;8.70;99.90
52899;DHT22;38763;53.096;6.062;2023-04-15T07:29:50;8.70;99.90
52899;DHT22;38763;53.096;6.062;2023-04-15T07:32:16;8.80;99.90
52899;DHT22;38763;53.096;6.062;2023-04-15T07:34:43;8.80;99.90
52899;DHT22;38763;53.096;6.062;2023-04-15T07:37:09;8.90;99.90
52899;DHT22;38763;53.096;6.062;2023-04-15T07:39:35;9.00;99.90
52899;DHT22;38763;53.096;6.062;2023-04-15T07:42:01;9.00;99.90
52899;DHT22;38763;53.096;6.062;2023-04-15T07:44:28;9.10;99.90
52899;DHT22;38763;53.096;6.062;2023-04-15T07:46:55;9.20;99.90
52899;DHT22;38763;53.096;6.062;2023-04-15T07:49:20;9.30;99.90
52899;DHT22;38763;53.096;6.062;2023-04-15T07:51:47;9.40;99.90
52899;DHT22;38763;53.096;6.062;2023-04-15T07:54:13;9.40;99.90
52899;DHT22;38763;53.096;6.062;2023-04-15T07:56:39;9.50;99.90
52899;DHT22;38763;53.096;6.062;2023-04-15T07:59:05;9.50;99.90
52899;DHT22;38763;53.096;6.062;2023-04-15T08:01:31;9.70;99.90
52899;DHT22;38763;53.096;6.062;2023-04-15T08:04:00;9.90;99.90
52899;DHT22;38763;53.096;6.062;2023-04-15T08:06:25;10.10;99.90
52899;DHT22;38763;53.096;6.062;2023-04-15T08:08:52;10.30;99.90
52899;DHT22;38763;53.096;6.062;2023-04-15T08:11:19;10.50;99.90
52899;DHT22;38763;53.096;6.062;2023-04-15T08:13:45;10.80;99.90
52899;DHT22;38763;53.096;6.062;2023-04-15T08:16:19;10.90;99.90
52899;DHT22;38763;53.096;6.062;2023-04-15T08:18:46;11.10;99.90
52899;DHT22;38763;53.096;6.062;2023-04-15T08:21:12;10.90;99.90
52899;DHT22;38763;53.096;6.062;2023-04-15T08:23:38;11.10;99.90
52899;DHT22;38763;53.096;6.062;2023-04-15T08:26:04;11.00;99.90
52899;DHT22;38763;53.096;6.062;2023-04-15T08:28:30;10.90;99.90
52899;DHT22;38763;53.096;6.062;2023-04-15T08:30:56;11.10;99.90
52899;DHT22;38763;53.096;6.062;2023-04-15T08:33:21;10.80;99.90
52899;DHT22;38763;53.096;6.062;2023-04-15T08:35:48;10.70;99.90
52899;DHT22;38763;53.096;6.062;2023-04-15T08:38:13;10.70;99.90
52899;DHT22;38763;53.096;6.062;2023-04-15T08:40:43;10.60;99.90
52899;DHT22;38763;53.096;6.062;2023-04-15T08:43:32;10.70;99.90
52899;DHT22;38763;53.096;6.062;2023-04-15T08:45:58;10.70;99.90
52899;DHT22;38763;53.096;6.062;2023-04-15T08:48:28;10.60;99.90
52899;DHT22;38763;53.096;6.062;2023-04-15T08:50:57;10.40;99.90
52899;DHT22;38763;53.096;6.062;2023-04-15T08:53:23;10.20;99.90
52899;DHT22;38763;53.096;6.062;2023-04-15T08:55:51;10.10;99.90
52899;DHT22;38763;53.096;6.062;2023-04-15T08:58:18;10.10;99.90
52899;DHT22;38763;53.096;6.062;2023-04-15T09:00:44;9.90;99.90
52899;DHT22;38763;53.096;6.062;2023-04-15T09:03:10;9.90;99.90
52899;DHT22;38763;53.096;6.062;2023-04-15T09:05:36;9.80;99.90
52899;DHT22;38763;53.096;6.062;2023-04-15T09:08:03;10.00;99.90
52899;DHT22;38763;53.096;6.062;2023-04-15T09:10:32;10.10;99.90
52899;DHT22;38763;53.096;6.062;2023-04-15T09:12:58;10.20;99.90
52899;DHT22;38763;53.096;6.062;2023-04-15T09:15:24;10.10;99.90
52899;DHT22;38763;53.096;6.062;2023-04-15T09:17:55;10.10;99.90
52899;DHT22;38763;53.096;6.062;2023-04-15T09:20:23;10.00;99.90
52899;DHT22;38763;53.096;6.062;2023-04-15T09:22:49;9.80;99.90
52899;DHT22;38763;53.096;6.062;2023-04-15T09:27:53;9.50;99.90
52899;DHT22;38763;53.096;6.062;2023-04-15T09:30:19;9.50;99.90
52899;DHT22;38763;53.096;6.062;2023-04-15T09:35:14;9.50;99.90
52899;DHT22;38763;53.096;6.062;2023-04-15T09:37:40;9.60;99.90
52899;DHT22;38763;53.096;6.062;2023-04-15T09:40:06;9.60;99.90
52899;DHT22;38763;53.096;6.062;2023-04-15T09:42:33;10.00;99.90
52899;DHT22;38763;53.096;6.062;2023-04-15T09:45:11;10.60;99.90
52899;DHT22;38763;53.096;6.062;2023-04-15T09:47:36;11.00;99.90
52899;DHT22;38763;53.096;6.062;2023-04-15T09:50:02;11.00;99.90
52899;DHT22;38763;53.096;6.062;2023-04-15T09:52:28;11.40;99.90
52899;DHT22;38763;53.096;6.062;2023-04-15T09:54:56;11.20;99.90
52899;DHT22;38763;53.096;6.062;2023-04-15T09:57:21;11.10;99.90
52899;DHT22;38763;53.096;6.062;2023-04-15T09:59:48;11.00;99.90
52899;DHT22;38763;53.096;6.062;2023-04-15T10:02:15;11.70;99.90
52899;DHT22;38763;53.096;6.062;2023-04-15T10:04:42;11.70;99.90
52899;DHT22;38763;53.096;6.062;2023-04-15T10:07:09;11.40;99.90
52899;DHT22;38763;53.096;6.062;2023-04-15T10:09:37;11.30;99.90
52899;DHT22;38763;53.096;6.062;2023-04-15T10:12:04;11.10;99.90
52899;DHT22;38763;53.096;6.062;2023-04-15T10:14:34;11.20;99.90
52899;DHT22;38763;53.096;6.062;2023-04-15T10:17:01;11.60;99.90
52899;DHT22;38763;53.096;6.062;2023-04-15T10:19:30;11.60;99.90
52899;DHT22;38763;53.096;6.062;2023-04-15T10:21:58;11.80;99.90
52899;DHT22;38763;53.096;6.062;2023-04-15T10:24:24;11.80;99.90
52899;DHT22;38763;53.096;6.062;2023-04-15T10:26:51;11.90;99.90
52899;DHT22;38763;53.096;6.062;2023-04-15T10:29:17;11.80;99.90
52899;DHT22;38763;53.096;6.062;2023-04-15T10:31:43;11.70;99.90
52899;DHT22;38763;53.096;6.062;2023-04-15T10:34:09;11.50;99.90
52899;DHT22;38763;53.096;6.062;2023-04-15T10:36:36;11.20;99.90
52899;DHT22;38763;53.096;6.062;2023-04-15T10:39:02;11.30;99.90
52899;DHT22;38763;53.096;6.062;2023-04-15T10:42:08;11.20;99.90
52899;DHT22;38763;53.096;6.062;2023-04-15T10:44:38;11.20;99.90
52899;DHT22;38763;53.096;6.062;2023-04-15T10:47:11;11.40;99.90
52899;DHT22;38763;53.096;6.062;2023-04-15T10:49:54;11.00;99.90
52899;DHT22;38763;53.096;6.062;2023-04-15T10:52:26;11.10;99.90
52899;DHT22;38763;53.096;6.062;2023-04-15T10:55:22;10.90;99.90
52899;DHT22;38763;53.096;6.062;2023-04-15T10:57:58;10.90;99.90
52899;DHT22;38763;53.096;6.062;2023-04-15T11:00:28;10.60;99.90
52899;DHT22;38763;53.096;6.062;2023-04-15T11:02:56;10.50;99.90
52899;DHT22;38763;53.096;6.062;2023-04-15T11:08:03;10.30;99.90
52899;DHT22;38763;53.096;6.062;2023-04-15T11:13:01;10.30;99.90
52899;DHT22;38763;53.096;6.062;2023-04-15T11:15:35;10.40;99.90
52899;DHT22;38763;53.096;6.062;2023-04-15T11:18:31;10.40;99.90
52899;DHT22;38763;53.096;6.062;2023-04-15T11:20:59;10.50;99.90
52899;DHT22;38763;53.096;6.062;2023-04-15T11:23:35;10.60;99.90
52899;DHT22;38763;53.096;6.062;2023-04-15T11:26:03;10.50;99.90
52899;DHT22;38763;53.096;6.062;2023-04-15T11:28:31;10.30;99.90
52899;DHT22;38763;53.096;6.062;2023-04-15T11:30:57;10.50;99.90
52899;DHT22;38763;53.096;6.062;2023-04-15T11:33:24;10.50;99.90
52899;DHT22;38763;53.096;6.062;2023-04-15T11:35:52;10.40;99.90
52899;DHT22;38763;53.096;6.062;2023-04-15T11:38:18;10.30;99.90
52899;DHT22;38763;53.096;6.062;2023-04-15T11:40:44;10.20;99.90
52899;DHT22;38763;53.096;6.062;2023-04-15T11:43:19;10.20;99.90
52899;DHT22;38763;53.096;6.062;2023-04-15T11:48:19;10.20;99.90
52899;DHT22;38763;53.096;6.062;2023-04-15T11:50:45;10.10;99.90
52899;DHT22;38763;53.096;6.062;2023-04-15T11:53:12;10.00;99.90
52899;DHT22;38763;53.096;6.062;2023-04-15T11:55:46;9.90;99.90
52899;DHT22;38763;53.096;6.062;2023-04-15T11:58:17;9.80;99.90
52899;DHT22;38763;53.096;6.062;2023-04-15T12:00:51;9.80;99.90
52899;DHT22;38763;53.096;6.062;2023-04-15T12:03:28;9.80;99.90
52899;DHT22;38763;53.096;6.062;2023-04-15T12:06:03;9.80;99.90
52899;DHT22;38763;53.096;6.062;2023-04-15T12:14:04;10.00;99.90
52899;DHT22;38763;53.096;6.062;2023-04-15T12:16:30;10.10;99.90
52899;DHT22;38763;53.096;6.062;2023-04-15T12:18:58;10.10;99.90
52899;DHT22;38763;53.096;6.062;2023-04-15T12:21:26;10.00;99.90
52899;DHT22;38763;53.096;6.062;2023-04-15T12:23:57;9.90;99.90
52899;DHT22;38763;53.096;6.062;2023-04-15T12:26:37;9.80;99.90
52899;DHT22;38763;53.096;6.062;2023-04-15T12:29:07;9.60;99.90
52899;DHT22;38763;53.096;6.062;2023-04-15T12:31:34;9.60;99.90
52899;DHT22;38763;53.096;6.062;2023-04-15T12:34:01;9.30;99.90
52899;DHT22;38763;53.096;6.062;2023-04-15T12:36:29;9.30;99.90
52899;DHT22;38763;53.096;6.062;2023-04-15T12:39:03;9.30;99.90
52899;DHT22;38763;53.096;6.062;2023-04-15T12:41:30;9.30;99.90
52899;DHT22;38763;53.096;6.062;2023-04-15T12:43:56;9.60;99.90
52899;DHT22;38763;53.096;6.062;2023-04-15T12:46:22;9.60;99.90
52899;DHT22;38763;53.096;6.062;2023-04-15T12:48:49;9.70;99.90
52899;DHT22;38763;53.096;6.062;2023-04-15T12:51:16;9.80;99.90
52899;DHT22;38763;53.096;6.062;2023-04-15T12:53:42;9.80;99.90
52899;DHT22;38763;53.096;6.062;2023-04-15T12:56:07;9.70;99.90
52899;DHT22;38763;53.096;6.062;2023-04-15T12:58:33;9.70;99.90
52899;DHT22;38763;53.096;6.062;2023-04-15T13:00:59;9.50;99.90
52899;DHT22;38763;53.096;6.062;2023-04-15T13:03:24;9.60;99.90
52899;DHT22;38763;53.096;6.062;2023-04-15T13:05:50;9.60;99.90
52899;DHT22;38763;53.096;6.062;2023-04-15T13:08:17;9.60;99.90
52899;DHT22;38763;53.096;6.062;2023-04-15T13:10:43;9.50;99.90
52899;DHT22;38763;53.096;6.062;2023-04-15T13:13:09;9.50;99.90
52899;DHT22;38763;53.096;6.062;2023-04-15T13:15:35;9.30;99.90
52899;DHT22;38763;53.096;6.062;2023-04-15T13:18:00;9.40;99.90
52899;DHT22;38763;53.096;6.062;2023-04-15T13:20:27;9.50;99.90
52899;DHT22;38763;53.096;6.062;2023-04-15T13:22:53;9.50;99.90
52899;DHT22;38763;53.096;6.062;2023-04-15T13:25:19;9.40;99.90
52899;DHT22;38763;53.096;6.062;2023-04-15T13:27:44;9.50;99.90
52899;DHT22;38763;53.096;6.062;2023-04-15T13:30:11;9.40;99.90
52899;DHT22;38763;53.096;6.062;2023-04-15T13:32:37;9.40;99.90
52899;DHT22;38763;53.096;6.062;2023-04-15T13:35:03;9.50;99.90
52899;DHT22;38763;53.096;6.062;2023-04-15T13:37:29;9.50;99.90
52899;DHT22;38763;53.096;6.062;2023-04-15T13:39:55;9.60;99.90
52899;DHT22;38763;53.096;6.062;2023-04-15T13:42:22;9.60;99.90
52899;DHT22;38763;53.096;6.062;2023-04-15T13:44:51;9.70;99.90
52899;DHT22;38763;53.096;6.062;2023-04-15T13:47:19;9.70;99.90
52899;DHT22;38763;53.096;6.062;2023-04-15T13:49:45;9.70;99.90
52899;DHT22;38763;53.096;6.062;2023-04-15T13:52:11;9.70;99.90
52899;DHT22;38763;53.096;6.062;2023-04-15T13:54:37;9.70;99.90
52899;DHT22;38763;53.096;6.062;2023-04-15T13:57:04;9.70;99.90
52899;DHT22;38763;53.096;6.062;2023-04-15T13:59:31;9.50;99.90
52899;DHT22;38763;53.096;6.062;2023-04-15T14:01:57;9.50;99.90
52899;DHT22;38763;53.096;6.062;2023-04-15T14:04:23;9.40;99.90
52899;DHT22;38763;53.096;6.062;2023-04-15T14:06:49;9.30;99.90
52899;DHT22;38763;53.096;6.062;2023-04-15T14:09:15;9.40;99.90
52899;DHT22;38763;53.096;6.062;2023-04-15T14:11:41;9.30;99.90
52899;DHT22;38763;53.096;6.062;2023-04-15T14:14:06;9.40;99.90
52899;DHT22;38763;53.096;6.062;2023-04-15T14:16:33;9.30;99.90
52899;DHT22;38763;53.096;6.062;2023-04-15T14:18:58;9.40;99.90
52899;DHT22;38763;53.096;6.062;2023-04-15T14:21:24;9.40;99.90
52899;DHT22;38763;53.096;6.062;2023-04-15T14:23:54;9.50;99.90
52899;DHT22;38763;53.096;6.062;2023-04-15T14:26:20;9.40;99.90
52899;DHT22;38763;53.096;6.062;2023-04-15T14:28:45;9.50;99.90
52899;DHT22;38763;53.096;6.062;2023-04-15T14:31:12;9.50;99.90
52899;DHT22;38763;53.096;6.062;2023-04-15T14:33:38;9.50;99.90
52899;DHT22;38763;53.096;6.062;2023-04-15T14:36:04;9.50;99.90
52899;DHT22;38763;53.096;6.062;2023-04-15T14:38:30;9.50;99.90
52899;DHT22;38763;53.096;6.062;2023-04-15T14:40:58;9.30;99.90
52899;DHT22;38763;53.096;6.062;2023-04-15T14:43:23;9.30;99.90
52899;DHT22;38763;53.096;6.062;2023-04-15T14:45:49;9.30;99.90
52899;DHT22;38763;53.096;6.062;2023-04-15T14:48:16;9.20;99.90
52899;DHT22;38763;53.096;6.062;2023-04-15T14:50:41;9.10;99.90
52899;DHT22;38763;53.096;6.062;2023-04-15T14:53:07;9.20;99.90
52899;DHT22;38763;53.096;6.062;2023-04-15T14:55:33;9.20;99.90
52899;DHT22;38763;53.096;6.062;2023-04-15T14:57:59;9.10;99.90
52899;DHT22;38763;53.096;6.062;2023-04-15T15:00:26;9.00;99.90
52899;DHT22;38763;53.096;6.062;2023-04-15T15:02:52;9.10;99.90
52899;DHT22;38763;53.096;6.062;2023-04-15T15:05:18;9.10;99.90
52899;DHT22;38763;53.096;6.062;2023-04-15T15:07:43;9.30;99.90
52899;DHT22;38763;53.096;6.062;2023-04-15T15:10:09;9.20;99.90
52899;DHT22;38763;53.096;6.062;2023-04-15T15:12:35;9.10;99.90
52899;DHT22;38763;53.096;6.062;2023-04-15T15:15:02;9.00;99.90
52899;DHT22;38763;53.096;6.062;2023-04-15T15:17:28;9.00;99.90
52899;DHT22;38763;53.096;6.062;2023-04-15T15:19:54;9.00;99.90
52899;DHT22;38763;53.096;6.062;2023-04-15T15:22:19;9.10;99.90
52899;DHT22;38763;53.096;6.062;2023-04-15T15:24:45;8.90;99.90
52899;DHT22;38763;53.096;6.062;2023-04-15T15:27:11;9.00;99.90
52899;DHT22;38763;53.096;6.062;2023-04-15T15:29:37;9.00;99.90
52899;DHT22;38763;53.096;6.062;2023-04-15T15:32:02;9.00;99.90
52899;DHT22;38763;53.096;6.062;2023-04-15T15:34:28;8.90;99.90
52899;DHT22;38763;53.096;6.062;2023-04-15T15:36:53;8.90;99.90
52899;DHT22;38763;53.096;6.062;2023-04-15T15:39:22;8.90;99.90
52899;DHT22;38763;53.096;6.062;2023-04-15T15:41:47;8.90;99.90
52899;DHT22;38763;53.096;6.062;2023-04-15T15:44:13;8.90;99.90
52899;DHT22;38763;53.096;6.062;2023-04-15T15:46:39;8.90;99.90
52899;DHT22;38763;53.096;6.062;2023-04-15T15:49:04;8.90;99.90
52899;DHT22;38763;53.096;6.062;2023-04-15T15:51:30;8.90;99.90
52899;DHT22;38763;53.096;6.062;2023-04-15T15:53:56;8.90;99.90
52899;DHT22;38763;53.096;6.062;2023-04-15T15:56:22;8.80;99.90
52899;DHT22;38763;53.096;6.062;2023-04-15T15:58:47;8.80;99.90